sensor_id;sensor_type;location;lat;lon;timestamp;temperature;humidity
19968;DHT22;10145;49.152;9.282;2023-07-13T00:02:19;19.10;94.40
19968;DHT22;10145;49.152;9.282;2023-07-13T00:04:44;19.20;94.30
19968;DHT22;10145;49.152;9.282;2023-07-13T00:07:10;19.20;94.20
19968;DHT22;10145;49.152;9.282;2023-07-13T00:09:35;19.20;94.20
19968;DHT22;10145;49.152;9.282;2023-07-13T00:12:01;19.10;94.40
19968;DHT22;10145;49.152;9.282;2023-07-13T00:14:28;19.10;94.30
19968;DHT22;10145;49.152;9.282;2023-07-13T00:16:55;19.00;94.50
19968;DHT22;10145;49.152;9.282;2023-07-13T00:19:20;19.00;94.60
19968;DHT22;10145;49.152;9.282;2023-07-13T00:21:46;18.90;94.70
19968;DHT22;10145;49.152;9.282;2023-07-13T00:24:14;18.90;94.80
19968;DHT22;10145;49.152;9.282;2023-07-13T00:26:41;18.80;95.10
19968;DHT22;10145;49.152;9.282;2023-07-13T00:29:11;18.60;95.20
19968;DHT22;10145;49.152;9.282;2023-07-13T00:31:37;18.60;95.20
19968;DHT22;10145;49.152;9.282;2023-07-13T00:34:03;18.60;95.30
19968;DHT22;10145;49.152;9.282;2023-07-13T00:36:29;18.50;95.20
19968;DHT22;10145;49.152;9.282;2023-07-13T00:38:55;18.50;95.30
19968;DHT22;10145;49.152;9.282;2023-07-13T00:41:21;18.50;95.10
19968;DHT22;10145;49.152;9.282;2023-07-13T00:43:46;18.50;95.10
19968;DHT22;10145;49.152;9.282;2023-07-13T00:46:16;18.40;95.30
19968;DHT22;10145;49.152;9.282;2023-07-13T00:48:43;18.20;95.40
19968;DHT22;10145;49.152;9.282;2023-07-13T00:51:10;18.20;95.50
19968;DHT22;10145;49.152;9.282;2023-07-13T00:53:36;18.00;95.30
19968;DHT22;10145;49.152;9.282;2023-07-13T00:56:03;18.00;95.40
19968;DHT22;10145;49.152;9.282;2023-07-13T00:58:29;18.00;95.40
19968;DHT22;10145;49.152;9.282;2023-07-13T01:00:55;17.90;95.40
19968;DHT22;10145;49.152;9.282;2023-07-13T01:03:21;17.80;95.50
19968;DHT22;10145;49.152;9.282;2023-07-13T01:05:48;17.70;95.90
19968;DHT22;10145;49.152;9.282;2023-07-13T01:08:15;17.70;95.60
19968;DHT22;10145;49.152;9.282;2023-07-13T01:10:42;17.70;95.70
19968;DHT22;10145;49.152;9.282;2023-07-13T01:13:15;17.60;95.70
19968;DHT22;10145;49.152;9.282;2023-07-13T01:15:46;17.50;96.10
19968;DHT22;10145;49.152;9.282;2023-07-13T01:18:32;17.50;96.10
19968;DHT22;10145;49.152;9.282;2023-07-13T01:21:00;17.40;96.10
19968;DHT22;10145;49.152;9.282;2023-07-13T01:23:28;17.50;96.10
19968;DHT22;10145;49.152;9.282;2023-07-13T01:25:54;17.40;96.40
19968;DHT22;10145;49.152;9.282;2023-07-13T01:28:21;17.40;96.40
19968;DHT22;10145;49.152;9.282;2023-07-13T01:30:47;17.30;96.50
19968;DHT22;10145;49.152;9.282;2023-07-13T01:33:16;17.40;96.60
19968;DHT22;10145;49.152;9.282;2023-07-13T01:35:43;17.40;96.70
19968;DHT22;10145;49.152;9.282;2023-07-13T01:38:09;17.30;96.80
19968;DHT22;10145;49.152;9.282;2023-07-13T01:40:36;17.20;96.90
19968;DHT22;10145;49.152;9.282;2023-07-13T01:43:03;17.30;96.90
19968;DHT22;10145;49.152;9.282;2023-07-13T01:45:29;17.20;97.00
19968;DHT22;10145;49.152;9.282;2023-07-13T01:47:54;17.10;97.60
19968;DHT22;10145;49.152;9.282;2023-07-13T01:50:20;17.00;97.50
19968;DHT22;10145;49.152;9.282;2023-07-13T01:52:46;16.80;97.70
19968;DHT22;10145;49.152;9.282;2023-07-13T01:55:11;16.70;97.90
19968;DHT22;10145;49.152;9.282;2023-07-13T01:57:37;16.70;97.90
19968;DHT22;10145;49.152;9.282;2023-07-13T02:00:10;16.60;98.10
19968;DHT22;10145;49.152;9.282;2023-07-13T02:02:36;16.50;98.60
19968;DHT22;10145;49.152;9.282;2023-07-13T02:05:01;16.40;99.50
19968;DHT22;10145;49.152;9.282;2023-07-13T02:07:27;16.30;99.90
19968;DHT22;10145;49.152;9.282;2023-07-13T02:09:52;16.20;99.70
19968;DHT22;10145;49.152;9.282;2023-07-13T02:12:19;16.20;99.10
19968;DHT22;10145;49.152;9.282;2023-07-13T02:14:44;16.10;99.10
19968;DHT22;10145;49.152;9.282;2023-07-13T02:17:10;16.10;99.40
19968;DHT22;10145;49.152;9.282;2023-07-13T02:19:36;16.00;99.60
19968;DHT22;10145;49.152;9.282;2023-07-13T02:22:01;16.00;99.40
19968;DHT22;10145;49.152;9.282;2023-07-13T02:24:27;16.00;99.10
19968;DHT22;10145;49.152;9.282;2023-07-13T02:26:53;16.00;99.60
19968;DHT22;10145;49.152;9.282;2023-07-13T02:29:18;15.90;99.90
19968;DHT22;10145;49.152;9.282;2023-07-13T02:31:44;15.90;99.90
19968;DHT22;10145;49.152;9.282;2023-07-13T02:34:09;15.80;99.90
19968;DHT22;10145;49.152;9.282;2023-07-13T02:36:35;15.90;99.90
19968;DHT22;10145;49.152;9.282;2023-07-13T02:39:02;16.00;99.90
19968;DHT22;10145;49.152;9.282;2023-07-13T02:41:28;16.00;99.90
19968;DHT22;10145;49.152;9.282;2023-07-13T02:43:54;15.90;99.90
19968;DHT22;10145;49.152;9.282;2023-07-13T02:46:22;15.90;99.90
19968;DHT22;10145;49.152;9.282;2023-07-13T02:48:49;16.00;99.90
19968;DHT22;10145;49.152;9.282;2023-07-13T02:51:15;16.00;99.90
19968;DHT22;10145;49.152;9.282;2023-07-13T02:53:40;15.90;99.90
19968;DHT22;10145;49.152;9.282;2023-07-13T02:56:06;15.90;99.90
19968;DHT22;10145;49.152;9.282;2023-07-13T02:58:32;15.80;99.90
19968;DHT22;10145;49.152;9.282;2023-07-13T03:00:58;15.70;99.90
19968;DHT22;10145;49.152;9.282;2023-07-13T03:03:23;15.60;99.90
19968;DHT22;10145;49.152;9.282;2023-07-13T03:05:59;15.40;99.90
19968;DHT22;10145;49.152;9.282;2023-07-13T03:08:25;15.40;99.90
19968;DHT22;10145;49.152;9.282;2023-07-13T03:11:00;15.40;99.90
19968;DHT22;10145;49.152;9.282;2023-07-13T03:13:26;15.40;99.90
19968;DHT22;10145;49.152;9.282;2023-07-13T03:15:51;15.30;99.90
19968;DHT22;10145;49.152;9.282;2023-07-13T03:18:17;15.30;99.90
19968;DHT22;10145;49.152;9.282;2023-07-13T03:20:42;15.20;99.90
19968;DHT22;10145;49.152;9.282;2023-07-13T03:23:08;15.10;99.90
19968;DHT22;10145;49.152;9.282;2023-07-13T03:25:33;15.10;99.90
19968;DHT22;10145;49.152;9.282;2023-07-13T03:27:59;15.00;99.90
19968;DHT22;10145;49.152;9.282;2023-07-13T03:30:24;15.00;99.90
19968;DHT22;10145;49.152;9.282;2023-07-13T03:32:50;14.90;99.90
19968;DHT22;10145;49.152;9.282;2023-07-13T03:35:15;14.90;99.90
19968;DHT22;10145;49.152;9.282;2023-07-13T03:37:41;15.00;99.90
19968;DHT22;10145;49.152;9.282;2023-07-13T03:40:08;14.90;99.90
19968;DHT22;10145;49.152;9.282;2023-07-13T03:42:34;14.90;99.90
19968;DHT22;10145;49.152;9.282;2023-07-13T03:45:00;15.00;99.90
19968;DHT22;10145;49.152;9.282;2023-07-13T03:47:26;15.10;99.90
19968;DHT22;10145;49.152;9.282;2023-07-13T03:49:51;15.00;99.90
19968;DHT22;10145;49.152;9.282;2023-07-13T03:52:17;14.90;99.90
19968;DHT22;10145;49.152;9.282;2023-07-13T03:54:42;14.90;99.90
19968;DHT22;10145;49.152;9.282;2023-07-13T03:57:08;14.80;99.90
19968;DHT22;10145;49.152;9.282;2023-07-13T03:59:34;14.80;99.90
19968;DHT22;10145;49.152;9.282;2023-07-13T04:02:00;14.80;99.90
19968;DHT22;10145;49.152;9.282;2023-07-13T04:04:26;14.80;99.90
19968;DHT22;10145;49.152;9.282;2023-07-13T04:06:52;14.80;99.90
19968;DHT22;10145;49.152;9.282;2023-07-13T04:09:18;14.90;99.90
19968;DHT22;10145;49.152;9.282;2023-07-13T04:11:44;15.00;99.90
19968;DHT22;10145;49.152;9.282;2023-07-13T04:14:10;15.00;99.90
19968;DHT22;10145;49.152;9.282;2023-07-13T04:16:35;14.90;99.90
19968;DHT22;10145;49.152;9.282;2023-07-13T04:19:01;14.90;99.90
19968;DHT22;10145;49.152;9.282;2023-07-13T04:21:28;14.90;99.90
19968;DHT22;10145;49.152;9.282;2023-07-13T04:23:54;14.90;99.90
19968;DHT22;10145;49.152;9.282;2023-07-13T04:26:20;15.00;99.90
19968;DHT22;10145;49.152;9.282;2023-07-13T04:28:49;15.10;99.90
19968;DHT22;10145;49.152;9.282;2023-07-13T04:31:15;15.20;99.90
19968;DHT22;10145;49.152;9.282;2023-07-13T04:33:41;15.30;99.90
19968;DHT22;10145;49.152;9.282;2023-07-13T04:36:08;15.40;99.90
19968;DHT22;10145;49.152;9.282;2023-07-13T04:38:35;15.50;99.90
19968;DHT22;10145;49.152;9.282;2023-07-13T04:41:02;15.60;99.90
19968;DHT22;10145;49.152;9.282;2023-07-13T04:43:29;15.60;99.90
19968;DHT22;10145;49.152;9.282;2023-07-13T04:45:56;15.70;99.90
19968;DHT22;10145;49.152;9.282;2023-07-13T04:48:22;15.90;99.90
19968;DHT22;10145;49.152;9.282;2023-07-13T04:50:57;16.00;99.90
19968;DHT22;10145;49.152;9.282;2023-07-13T04:53:23;16.20;99.90
19968;DHT22;10145;49.152;9.282;2023-07-13T04:55:49;16.30;99.90
19968;DHT22;10145;49.152;9.282;2023-07-13T04:58:15;16.50;99.90
19968;DHT22;10145;49.152;9.282;2023-07-13T05:00:41;16.60;99.90
19968;DHT22;10145;49.152;9.282;2023-07-13T05:03:06;16.60;99.90
19968;DHT22;10145;49.152;9.282;2023-07-13T05:05:32;16.60;99.90
19968;DHT22;10145;49.152;9.282;2023-07-13T05:07:57;16.50;99.90
19968;DHT22;10145;49.152;9.282;2023-07-13T05:10:23;16.40;99.90
19968;DHT22;10145;49.152;9.282;2023-07-13T05:12:49;16.40;99.90
19968;DHT22;10145;49.152;9.282;2023-07-13T05:15:15;16.40;99.90
19968;DHT22;10145;49.152;9.282;2023-07-13T05:17:41;16.50;99.90
19968;DHT22;10145;49.152;9.282;2023-07-13T05:20:08;16.50;99.90
19968;DHT22;10145;49.152;9.282;2023-07-13T05:22:34;16.60;99.90
19968;DHT22;10145;49.152;9.282;2023-07-13T05:25:01;16.70;99.90
19968;DHT22;10145;49.152;9.282;2023-07-13T05:27:27;16.70;99.90
19968;DHT22;10145;49.152;9.282;2023-07-13T05:29:52;16.80;99.90
19968;DHT22;10145;49.152;9.282;2023-07-13T05:32:18;16.90;99.90
19968;DHT22;10145;49.152;9.282;2023-07-13T05:34:44;16.90;99.90
19968;DHT22;10145;49.152;9.282;2023-07-13T05:37:10;17.00;99.90
19968;DHT22;10145;49.152;9.282;2023-07-13T05:39:35;17.10;99.90
19968;DHT22;10145;49.152;9.282;2023-07-13T05:42:02;17.30;99.90
19968;DHT22;10145;49.152;9.282;2023-07-13T05:44:27;17.40;99.90
19968;DHT22;10145;49.152;9.282;2023-07-13T05:46:53;17.50;99.90
19968;DHT22;10145;49.152;9.282;2023-07-13T05:49:21;17.60;99.90
19968;DHT22;10145;49.152;9.282;2023-07-13T05:51:47;17.80;99.90
19968;DHT22;10145;49.152;9.282;2023-07-13T05:54:12;17.90;99.90
19968;DHT22;10145;49.152;9.282;2023-07-13T05:56:38;18.20;99.90
19968;DHT22;10145;49.152;9.282;2023-07-13T05:59:03;18.30;99.90
19968;DHT22;10145;49.152;9.282;2023-07-13T06:01:30;18.40;99.90
19968;DHT22;10145;49.152;9.282;2023-07-13T06:03:56;18.70;99.90
19968;DHT22;10145;49.152;9.282;2023-07-13T06:06:21;18.90;99.90
19968;DHT22;10145;49.152;9.282;2023-07-13T06:08:47;19.00;99.90
19968;DHT22;10145;49.152;9.282;2023-07-13T06:11:18;19.10;99.90
19968;DHT22;10145;49.152;9.282;2023-07-13T06:13:44;19.20;99.90
19968;DHT22;10145;49.152;9.282;2023-07-13T06:16:11;19.20;99.70
19968;DHT22;10145;49.152;9.282;2023-07-13T06:18:37;19.20;99.90
19968;DHT22;10145;49.152;9.282;2023-07-13T06:21:12;19.30;99.90
19968;DHT22;10145;49.152;9.282;2023-07-13T06:23:38;19.30;99.60
19968;DHT22;10145;49.152;9.282;2023-07-13T06:26:05;19.30;99.60
19968;DHT22;10145;49.152;9.282;2023-07-13T06:28:32;19.30;99.10
19968;DHT22;10145;49.152;9.282;2023-07-13T06:30:58;19.30;98.90
19968;DHT22;10145;49.152;9.282;2023-07-13T06:33:25;19.10;99.30
19968;DHT22;10145;49.152;9.282;2023-07-13T06:35:51;19.00;99.30
19968;DHT22;10145;49.152;9.282;2023-07-13T06:38:16;19.10;99.80
19968;DHT22;10145;49.152;9.282;2023-07-13T06:40:42;19.00;99.60
19968;DHT22;10145;49.152;9.282;2023-07-13T06:43:07;19.00;99.50
19968;DHT22;10145;49.152;9.282;2023-07-13T06:45:40;18.90;99.20
19968;DHT22;10145;49.152;9.282;2023-07-13T06:48:06;19.00;98.30
19968;DHT22;10145;49.152;9.282;2023-07-13T06:50:33;19.10;98.60
19968;DHT22;10145;49.152;9.282;2023-07-13T06:52:59;19.30;98.50
19968;DHT22;10145;49.152;9.282;2023-07-13T06:55:25;19.50;98.50
19968;DHT22;10145;49.152;9.282;2023-07-13T06:57:51;19.70;97.10
19968;DHT22;10145;49.152;9.282;2023-07-13T07:00:16;19.70;96.30
19968;DHT22;10145;49.152;9.282;2023-07-13T07:02:42;19.80;96.80
19968;DHT22;10145;49.152;9.282;2023-07-13T07:05:08;20.00;95.00
19968;DHT22;10145;49.152;9.282;2023-07-13T07:07:33;20.20;93.80
19968;DHT22;10145;49.152;9.282;2023-07-13T07:09:59;20.40;93.90
19968;DHT22;10145;49.152;9.282;2023-07-13T07:12:24;20.50;93.60
19968;DHT22;10145;49.152;9.282;2023-07-13T07:14:50;20.30;93.60
19968;DHT22;10145;49.152;9.282;2023-07-13T07:17:15;20.30;93.60
19968;DHT22;10145;49.152;9.282;2023-07-13T07:19:41;20.40;93.60
19968;DHT22;10145;49.152;9.282;2023-07-13T07:22:07;20.70;93.20
19968;DHT22;10145;49.152;9.282;2023-07-13T07:24:32;20.80;93.10
19968;DHT22;10145;49.152;9.282;2023-07-13T07:26:58;20.80;92.60
19968;DHT22;10145;49.152;9.282;2023-07-13T07:29:24;20.80;92.30
19968;DHT22;10145;49.152;9.282;2023-07-13T07:31:51;21.00;92.10
19968;DHT22;10145;49.152;9.282;2023-07-13T07:34:17;21.40;91.50
19968;DHT22;10145;49.152;9.282;2023-07-13T07:36:43;21.60;90.40
19968;DHT22;10145;49.152;9.282;2023-07-13T07:39:11;21.90;90.10
19968;DHT22;10145;49.152;9.282;2023-07-13T07:41:37;21.80;90.00
19968;DHT22;10145;49.152;9.282;2023-07-13T07:44:03;21.70;90.20
19968;DHT22;10145;49.152;9.282;2023-07-13T07:46:29;21.70;89.10
19968;DHT22;10145;49.152;9.282;2023-07-13T07:48:56;22.00;88.20
19968;DHT22;10145;49.152;9.282;2023-07-13T07:51:21;22.20;87.60
19968;DHT22;10145;49.152;9.282;2023-07-13T07:53:47;22.50;87.50
19968;DHT22;10145;49.152;9.282;2023-07-13T07:56:13;22.90;87.50
19968;DHT22;10145;49.152;9.282;2023-07-13T07:58:42;23.10;85.80
19968;DHT22;10145;49.152;9.282;2023-07-13T08:01:11;23.20;85.70
19968;DHT22;10145;49.152;9.282;2023-07-13T08:03:36;23.40;85.20
19968;DHT22;10145;49.152;9.282;2023-07-13T08:06:02;23.60;80.80
19968;DHT22;10145;49.152;9.282;2023-07-13T08:08:27;23.60;81.30
19968;DHT22;10145;49.152;9.282;2023-07-13T08:10:53;23.70;80.90
19968;DHT22;10145;49.152;9.282;2023-07-13T08:13:19;23.70;77.40
19968;DHT22;10145;49.152;9.282;2023-07-13T08:15:45;23.80;76.10
19968;DHT22;10145;49.152;9.282;2023-07-13T08:18:11;23.80;76.10
19968;DHT22;10145;49.152;9.282;2023-07-13T08:20:38;23.80;76.30
19968;DHT22;10145;49.152;9.282;2023-07-13T08:23:04;23.90;76.70
19968;DHT22;10145;49.152;9.282;2023-07-13T08:25:29;23.70;77.30
19968;DHT22;10145;49.152;9.282;2023-07-13T08:27:55;23.90;76.10
19968;DHT22;10145;49.152;9.282;2023-07-13T08:30:21;24.20;77.70
19968;DHT22;10145;49.152;9.282;2023-07-13T08:32:46;24.50;76.10
19968;DHT22;10145;49.152;9.282;2023-07-13T08:35:12;24.50;74.90
19968;DHT22;10145;49.152;9.282;2023-07-13T08:37:39;24.60;75.20
19968;DHT22;10145;49.152;9.282;2023-07-13T08:40:05;24.70;73.40
19968;DHT22;10145;49.152;9.282;2023-07-13T08:42:42;24.60;71.70
19968;DHT22;10145;49.152;9.282;2023-07-13T08:45:21;24.70;72.70
19968;DHT22;10145;49.152;9.282;2023-07-13T08:53:39;25.40;70.40
19968;DHT22;10145;49.152;9.282;2023-07-13T08:56:15;25.30;70.10
19968;DHT22;10145;49.152;9.282;2023-07-13T08:58:42;25.20;69.70
19968;DHT22;10145;49.152;9.282;2023-07-13T09:01:28;25.30;69.20
19968;DHT22;10145;49.152;9.282;2023-07-13T09:04:14;25.20;68.60
19968;DHT22;10145;49.152;9.282;2023-07-13T09:09:41;25.80;68.70
19968;DHT22;10145;49.152;9.282;2023-07-13T09:12:14;25.70;68.10
19968;DHT22;10145;49.152;9.282;2023-07-13T09:14:48;25.50;69.30
19968;DHT22;10145;49.152;9.282;2023-07-13T09:17:20;25.70;69.50
19968;DHT22;10145;49.152;9.282;2023-07-13T09:19:50;25.90;68.70
19968;DHT22;10145;49.152;9.282;2023-07-13T09:22:20;26.40;67.90
19968;DHT22;10145;49.152;9.282;2023-07-13T09:24:53;26.60;66.90
19968;DHT22;10145;49.152;9.282;2023-07-13T09:27:24;26.60;67.40
19968;DHT22;10145;49.152;9.282;2023-07-13T09:32:38;26.90;65.00
19968;DHT22;10145;49.152;9.282;2023-07-13T09:35:11;26.70;64.30
19968;DHT22;10145;49.152;9.282;2023-07-13T09:37:37;26.70;63.80
19968;DHT22;10145;49.152;9.282;2023-07-13T09:40:05;26.80;64.60
19968;DHT22;10145;49.152;9.282;2023-07-13T09:42:32;26.90;62.90
19968;DHT22;10145;49.152;9.282;2023-07-13T09:45:01;27.00;61.60
19968;DHT22;10145;49.152;9.282;2023-07-13T09:47:29;27.20;61.20
19968;DHT22;10145;49.152;9.282;2023-07-13T09:50:01;27.30;62.40
19968;DHT22;10145;49.152;9.282;2023-07-13T09:52:28;27.60;61.50
19968;DHT22;10145;49.152;9.282;2023-07-13T09:55:12;27.60;61.70
19968;DHT22;10145;49.152;9.282;2023-07-13T09:57:47;27.60;59.80
19968;DHT22;10145;49.152;9.282;2023-07-13T10:00:21;27.50;59.60
19968;DHT22;10145;49.152;9.282;2023-07-13T10:02:58;27.10;60.10
19968;DHT22;10145;49.152;9.282;2023-07-13T10:05:24;26.80;60.40
19968;DHT22;10145;49.152;9.282;2023-07-13T10:07:51;26.70;61.70
19968;DHT22;10145;49.152;9.282;2023-07-13T10:10:22;27.00;60.20
19968;DHT22;10145;49.152;9.282;2023-07-13T10:12:49;27.20;59.70
19968;DHT22;10145;49.152;9.282;2023-07-13T10:15:17;27.40;58.90
19968;DHT22;10145;49.152;9.282;2023-07-13T10:17:44;27.40;58.30
19968;DHT22;10145;49.152;9.282;2023-07-13T10:20:10;27.20;59.10
19968;DHT22;10145;49.152;9.282;2023-07-13T10:22:51;27.20;59.80
19968;DHT22;10145;49.152;9.282;2023-07-13T10:25:20;27.00;59.40
19968;DHT22;10145;49.152;9.282;2023-07-13T10:27:50;27.10;61.50
19968;DHT22;10145;49.152;9.282;2023-07-13T10:32:45;27.20;59.30
19968;DHT22;10145;49.152;9.282;2023-07-13T10:35:14;27.00;59.10
19968;DHT22;10145;49.152;9.282;2023-07-13T10:38:05;27.30;58.40
19968;DHT22;10145;49.152;9.282;2023-07-13T10:40:37;27.10;57.70
19968;DHT22;10145;49.152;9.282;2023-07-13T10:43:17;27.10;59.40
19968;DHT22;10145;49.152;9.282;2023-07-13T10:45:45;27.60;58.60
19968;DHT22;10145;49.152;9.282;2023-07-13T10:48:13;27.80;57.30
19968;DHT22;10145;49.152;9.282;2023-07-13T10:50:43;28.10;57.80
19968;DHT22;10145;49.152;9.282;2023-07-13T10:53:36;28.20;56.50
19968;DHT22;10145;49.152;9.282;2023-07-13T10:58:38;29.00;56.10
19968;DHT22;10145;49.152;9.282;2023-07-13T11:01:12;28.80;54.40
19968;DHT22;10145;49.152;9.282;2023-07-13T11:06:36;27.80;59.20
19968;DHT22;10145;49.152;9.282;2023-07-13T11:11:56;28.70;57.30
19968;DHT22;10145;49.152;9.282;2023-07-13T11:14:34;28.80;55.90
19968;DHT22;10145;49.152;9.282;2023-07-13T11:19:53;29.80;54.10
19968;DHT22;10145;49.152;9.282;2023-07-13T11:22:40;30.10;54.10
19968;DHT22;10145;49.152;9.282;2023-07-13T11:35:46;28.40;55.40
19968;DHT22;10145;49.152;9.282;2023-07-13T11:38:19;27.90;56.40
19968;DHT22;10145;49.152;9.282;2023-07-13T11:40:47;27.10;58.50
19968;DHT22;10145;49.152;9.282;2023-07-13T11:43:14;27.00;60.10
19968;DHT22;10145;49.152;9.282;2023-07-13T11:45:41;27.80;59.70
19968;DHT22;10145;49.152;9.282;2023-07-13T11:48:22;28.50;56.70
19968;DHT22;10145;49.152;9.282;2023-07-13T11:51:01;28.60;56.60
19968;DHT22;10145;49.152;9.282;2023-07-13T11:53:29;28.60;53.80
19968;DHT22;10145;49.152;9.282;2023-07-13T11:55:58;28.70;55.10
19968;DHT22;10145;49.152;9.282;2023-07-13T11:58:25;29.00;53.60
19968;DHT22;10145;49.152;9.282;2023-07-13T12:00:53;29.00;53.70
19968;DHT22;10145;49.152;9.282;2023-07-13T12:03:22;29.10;53.60
19968;DHT22;10145;49.152;9.282;2023-07-13T12:05:58;29.30;54.00
19968;DHT22;10145;49.152;9.282;2023-07-13T12:08:25;29.60;52.40
19968;DHT22;10145;49.152;9.282;2023-07-13T12:10:57;29.50;53.40
19968;DHT22;10145;49.152;9.282;2023-07-13T12:13:23;29.10;52.80
19968;DHT22;10145;49.152;9.282;2023-07-13T12:15:48;28.90;53.80
19968;DHT22;10145;49.152;9.282;2023-07-13T12:18:18;28.50;53.50
19968;DHT22;10145;49.152;9.282;2023-07-13T12:20:45;28.50;54.60
19968;DHT22;10145;49.152;9.282;2023-07-13T12:25:46;29.60;52.60
19968;DHT22;10145;49.152;9.282;2023-07-13T12:28:33;29.80;51.60
19968;DHT22;10145;49.152;9.282;2023-07-13T12:31:04;29.80;52.40
19968;DHT22;10145;49.152;9.282;2023-07-13T12:33:32;29.60;53.20
19968;DHT22;10145;49.152;9.282;2023-07-13T12:36:00;29.80;54.30
19968;DHT22;10145;49.152;9.282;2023-07-13T12:38:27;29.80;52.40
19968;DHT22;10145;49.152;9.282;2023-07-13T12:40:53;29.50;52.10
19968;DHT22;10145;49.152;9.282;2023-07-13T12:43:22;29.70;53.00
19968;DHT22;10145;49.152;9.282;2023-07-13T12:46:19;28.80;55.40
19968;DHT22;10145;49.152;9.282;2023-07-13T12:48:50;28.90;55.00
19968;DHT22;10145;49.152;9.282;2023-07-13T12:51:16;29.40;55.20
19968;DHT22;10145;49.152;9.282;2023-07-13T12:53:49;29.40;54.90
19968;DHT22;10145;49.152;9.282;2023-07-13T12:56:22;29.00;53.50
19968;DHT22;10145;49.152;9.282;2023-07-13T12:58:49;29.10;53.50
19968;DHT22;10145;49.152;9.282;2023-07-13T13:01:21;29.10;53.70
19968;DHT22;10145;49.152;9.282;2023-07-13T13:03:52;28.70;54.10
19968;DHT22;10145;49.152;9.282;2023-07-13T13:08:45;28.20;56.70
19968;DHT22;10145;49.152;9.282;2023-07-13T13:11:11;28.80;55.60
19968;DHT22;10145;49.152;9.282;2023-07-13T13:13:37;29.50;56.30
19968;DHT22;10145;49.152;9.282;2023-07-13T13:16:31;29.80;53.90
19968;DHT22;10145;49.152;9.282;2023-07-13T13:19:00;29.70;54.00
19968;DHT22;10145;49.152;9.282;2023-07-13T13:21:28;29.90;53.80
19968;DHT22;10145;49.152;9.282;2023-07-13T13:23:53;30.70;52.70
19968;DHT22;10145;49.152;9.282;2023-07-13T13:26:21;31.40;52.90
19968;DHT22;10145;49.152;9.282;2023-07-13T13:28:46;32.10;52.50
19968;DHT22;10145;49.152;9.282;2023-07-13T13:31:13;32.80;48.80
19968;DHT22;10145;49.152;9.282;2023-07-13T13:33:40;33.20;47.90
19968;DHT22;10145;49.152;9.282;2023-07-13T13:36:29;33.20;47.90
19968;DHT22;10145;49.152;9.282;2023-07-13T13:38:55;32.80;48.50
19968;DHT22;10145;49.152;9.282;2023-07-13T13:41:20;32.40;49.40
19968;DHT22;10145;49.152;9.282;2023-07-13T13:43:46;32.50;49.40
19968;DHT22;10145;49.152;9.282;2023-07-13T13:46:18;32.90;49.40
19968;DHT22;10145;49.152;9.282;2023-07-13T13:48:44;32.90;50.80
19968;DHT22;10145;49.152;9.282;2023-07-13T13:51:21;32.70;49.70
19968;DHT22;10145;49.152;9.282;2023-07-13T13:53:48;32.50;50.60
19968;DHT22;10145;49.152;9.282;2023-07-13T13:56:14;32.90;47.90
19968;DHT22;10145;49.152;9.282;2023-07-13T13:58:40;32.00;49.00
19968;DHT22;10145;49.152;9.282;2023-07-13T14:01:13;31.00;50.90
19968;DHT22;10145;49.152;9.282;2023-07-13T14:03:39;31.00;52.00
19968;DHT22;10145;49.152;9.282;2023-07-13T14:06:05;31.20;50.40
19968;DHT22;10145;49.152;9.282;2023-07-13T14:08:31;30.80;52.20
19968;DHT22;10145;49.152;9.282;2023-07-13T14:10:57;31.60;51.20
19968;DHT22;10145;49.152;9.282;2023-07-13T14:13:30;32.20;50.70
19968;DHT22;10145;49.152;9.282;2023-07-13T14:15:56;32.40;50.30
19968;DHT22;10145;49.152;9.282;2023-07-13T14:18:22;33.40;48.30
19968;DHT22;10145;49.152;9.282;2023-07-13T14:20:49;34.10;47.50
19968;DHT22;10145;49.152;9.282;2023-07-13T14:23:17;35.00;43.40
19968;DHT22;10145;49.152;9.282;2023-07-13T14:25:46;34.50;46.60
19968;DHT22;10145;49.152;9.282;2023-07-13T14:28:24;34.50;44.80
19968;DHT22;10145;49.152;9.282;2023-07-13T14:30:51;34.80;44.80
19968;DHT22;10145;49.152;9.282;2023-07-13T14:33:18;35.00;41.90
19968;DHT22;10145;49.152;9.282;2023-07-13T14:35:43;34.90;42.80
19968;DHT22;10145;49.152;9.282;2023-07-13T14:38:13;35.00;45.30
19968;DHT22;10145;49.152;9.282;2023-07-13T14:40:40;35.20;43.30
19968;DHT22;10145;49.152;9.282;2023-07-13T14:43:10;35.20;43.30
19968;DHT22;10145;49.152;9.282;2023-07-13T14:45:39;35.50;42.30
19968;DHT22;10145;49.152;9.282;2023-07-13T14:48:21;34.80;43.50
19968;DHT22;10145;49.152;9.282;2023-07-13T14:50:53;34.50;44.00
19968;DHT22;10145;49.152;9.282;2023-07-13T14:53:18;35.00;44.70
19968;DHT22;10145;49.152;9.282;2023-07-13T14:55:44;35.80;42.90
19968;DHT22;10145;49.152;9.282;2023-07-13T14:58:09;37.20;42.60
19968;DHT22;10145;49.152;9.282;2023-07-13T15:00:35;37.90;41.60
19968;DHT22;10145;49.152;9.282;2023-07-13T15:03:03;37.40;41.80
19968;DHT22;10145;49.152;9.282;2023-07-13T15:05:30;37.20;40.00
19968;DHT22;10145;49.152;9.282;2023-07-13T15:08:02;37.30;40.20
19968;DHT22;10145;49.152;9.282;2023-07-13T15:10:32;36.30;40.50
19968;DHT22;10145;49.152;9.282;2023-07-13T15:13:19;36.30;40.60
19968;DHT22;10145;49.152;9.282;2023-07-13T15:15:47;36.20;42.60
19968;DHT22;10145;49.152;9.282;2023-07-13T15:18:14;35.80;42.10
19968;DHT22;10145;49.152;9.282;2023-07-13T15:20:43;36.40;40.70
19968;DHT22;10145;49.152;9.282;2023-07-13T15:23:10;36.50;40.00
19968;DHT22;10145;49.152;9.282;2023-07-13T15:25:37;35.80;40.70
19968;DHT22;10145;49.152;9.282;2023-07-13T15:28:02;36.00;40.40
19968;DHT22;10145;49.152;9.282;2023-07-13T15:30:40;36.10;40.60
19968;DHT22;10145;49.152;9.282;2023-07-13T15:35:42;35.70;39.60
19968;DHT22;10145;49.152;9.282;2023-07-13T15:38:21;34.90;42.20
19968;DHT22;10145;49.152;9.282;2023-07-13T15:40:48;35.60;40.20
19968;DHT22;10145;49.152;9.282;2023-07-13T15:43:15;36.00;38.90
19968;DHT22;10145;49.152;9.282;2023-07-13T15:45:41;36.90;41.50
19968;DHT22;10145;49.152;9.282;2023-07-13T15:50:49;37.40;38.20
19968;DHT22;10145;49.152;9.282;2023-07-13T15:53:23;35.30;41.60
19968;DHT22;10145;49.152;9.282;2023-07-13T15:55:49;34.90;41.90
19968;DHT22;10145;49.152;9.282;2023-07-13T15:58:15;35.50;42.10
19968;DHT22;10145;49.152;9.282;2023-07-13T16:00:41;35.30;43.10
19968;DHT22;10145;49.152;9.282;2023-07-13T16:03:08;35.50;41.60
19968;DHT22;10145;49.152;9.282;2023-07-13T16:05:33;35.70;42.00
19968;DHT22;10145;49.152;9.282;2023-07-13T16:08:00;36.30;39.60
19968;DHT22;10145;49.152;9.282;2023-07-13T16:10:34;36.40;40.60
19968;DHT22;10145;49.152;9.282;2023-07-13T16:13:01;36.40;40.60
19968;DHT22;10145;49.152;9.282;2023-07-13T16:15:27;35.10;40.60
19968;DHT22;10145;49.152;9.282;2023-07-13T16:17:53;34.50;43.00
19968;DHT22;10145;49.152;9.282;2023-07-13T16:20:20;35.80;41.00
19968;DHT22;10145;49.152;9.282;2023-07-13T16:22:48;36.00;41.20